Preview of NWS' New Version of Forecast
This preview is not operational and should not be used for support decisions.

Terminal Aerodrome Forecast (TAF)

Issued by National Weather Service (NWS)

                            
053 
FTUS42 KMFL 191740
TAFMIA
TAF
KMIA 191740Z 1918/2024 10016G26KT P6SM VCSH SCT025 BKN050
      TEMPO 1918/1920 6SM -SHRA BKN025
     FM200000 09013KT P6SM FEW015 SCT025 BKN050
     FM201500 12016G26KT P6SM FEW025 SCT050=